createdAt,value
2023-01-29T00:01:37.283Z,6.40
2023-01-29T00:04:04.609Z,6.33
2023-01-29T00:06:32.478Z,6.20
2023-01-29T00:08:59.692Z,5.97
2023-01-29T00:11:27.041Z,6.47
2023-01-29T00:13:54.471Z,5.90
2023-01-29T00:16:21.943Z,6.40
2023-01-29T00:18:49.196Z,6.13
2023-01-29T00:21:17.971Z,5.73
2023-01-29T00:23:45.360Z,6.60
2023-01-29T00:26:12.718Z,5.40
2023-01-29T00:28:44.576Z,5.33
2023-01-29T00:31:13.159Z,6.07
2023-01-29T00:33:40.707Z,5.93
2023-01-29T00:36:10.301Z,6.00
2023-01-29T00:38:38.091Z,6.47
2023-01-29T00:41:28.153Z,6.77
2023-01-29T00:44:14.171Z,6.17
2023-01-29T00:46:41.515Z,6.07
2023-01-29T00:49:09.241Z,6.43
2023-01-29T00:51:36.831Z,6.43
2023-01-29T00:54:06.854Z,5.93
2023-01-29T00:56:35.967Z,6.13
2023-01-29T00:59:04.279Z,6.53
2023-01-29T01:02:10.070Z,6.10
2023-01-29T01:04:37.333Z,6.63
2023-01-29T01:07:04.618Z,6.33
2023-01-29T01:09:50.808Z,6.97
2023-01-29T01:12:18.037Z,6.80
2023-01-29T01:14:46.021Z,6.83
2023-01-29T01:17:15.256Z,6.63
2023-01-29T01:19:42.732Z,6.93
2023-01-29T01:22:10.058Z,7.13
2023-01-29T01:24:38.140Z,6.87
2023-01-29T01:27:05.823Z,6.50
2023-01-29T01:29:33.356Z,6.83
2023-01-29T01:32:00.810Z,6.90
2023-01-29T01:34:28.202Z,7.07
2023-01-29T01:36:56.285Z,7.20
2023-01-29T01:39:24.465Z,7.60
2023-01-29T01:41:53.577Z,7.47
2023-01-29T01:44:39.401Z,7.10
2023-01-29T01:47:06.666Z,7.10
2023-01-29T01:49:34.039Z,7.63
2023-01-29T01:52:01.244Z,7.80
2023-01-29T01:54:30.775Z,7.27
2023-01-29T01:57:09.243Z,7.70
2023-01-29T01:59:38.077Z,7.67
2023-01-29T02:02:25.019Z,8.23
2023-01-29T02:05:12.671Z,8.30
2023-01-29T02:08:05.664Z,8.10
2023-01-29T02:10:37.978Z,8.40
2023-01-29T02:13:06.967Z,8.67
2023-01-29T02:15:34.636Z,8.63
2023-01-29T02:18:03.027Z,8.43
2023-01-29T02:20:34.568Z,8.97
2023-01-29T02:23:17.179Z,8.90
2023-01-29T02:25:54.666Z,9.13
2023-01-29T02:28:24.952Z,8.50
2023-01-29T02:31:10.911Z,9.13
2023-01-29T02:33:50.457Z,9.40
2023-01-29T02:36:27.052Z,9.57
2023-01-29T02:39:00.415Z,9.57
2023-01-29T02:41:30.738Z,9.97
2023-01-29T02:44:04.442Z,9.93
2023-01-29T02:46:38.066Z,9.43
2023-01-29T02:49:14.220Z,9.53
2023-01-29T02:51:46.577Z,9.63
2023-01-29T02:54:21.117Z,10.30
2023-01-29T02:56:56.462Z,10.00
2023-01-29T02:59:26.303Z,10.23
2023-01-29T03:01:59.271Z,10.13
2023-01-29T03:04:38.545Z,11.17
2023-01-29T03:07:10.555Z,10.70
2023-01-29T03:09:40.673Z,10.93
2023-01-29T03:12:29.122Z,10.60
2023-01-29T03:15:13.127Z,10.83
2023-01-29T03:17:56.325Z,10.33
2023-01-29T03:20:26.465Z,10.73
2023-01-29T03:22:58.360Z,10.10
2023-01-29T03:25:46.895Z,10.63
2023-01-29T03:28:38.053Z,10.77
2023-01-29T03:31:25.646Z,12.37
2023-01-29T03:33:59.322Z,10.60
2023-01-29T03:36:45.281Z,10.33
2023-01-29T03:39:14.281Z,9.90
2023-01-29T03:41:47.620Z,9.50
2023-01-29T03:44:33.713Z,10.20
2023-01-29T03:47:18.180Z,9.77
2023-01-29T03:49:53.907Z,9.43
2023-01-29T03:52:24.404Z,9.53
2023-01-29T03:55:01.553Z,9.27
2023-01-29T03:57:35.670Z,14.43
2023-01-29T04:00:05.115Z,16.67
2023-01-29T04:02:59.208Z,9.87
2023-01-29T04:05:28.771Z,10.30
2023-01-29T04:08:09.363Z,10.40
2023-01-29T04:10:39.734Z,9.17
2023-01-29T04:13:08.455Z,9.63
2023-01-29T04:15:42.157Z,8.77
2023-01-29T04:18:10.418Z,9.07
2023-01-29T04:21:16.798Z,9.30
2023-01-29T04:23:44.458Z,9.40
2023-01-29T04:26:29.141Z,9.73
2023-01-29T04:29:03.079Z,9.67
2023-01-29T04:31:36.282Z,10.70
2023-01-29T04:34:07.508Z,9.40
2023-01-29T04:36:39.139Z,9.27
2023-01-29T04:39:17.438Z,9.80
2023-01-29T04:41:55.672Z,9.30
2023-01-29T04:47:30.936Z,9.30
2023-01-29T04:50:13.720Z,9.60
2023-01-29T04:53:02.025Z,10.03
2023-01-29T04:55:41.498Z,9.63
2023-01-29T04:58:18.021Z,9.73
2023-01-29T05:00:46.333Z,9.20
2023-01-29T05:03:15.310Z,8.63
2023-01-29T05:05:43.464Z,9.70
2023-01-29T05:08:13.648Z,10.10
2023-01-29T05:10:42.444Z,9.60
2023-01-29T05:16:05.351Z,10.37
2023-01-29T05:18:32.969Z,10.00
2023-01-29T05:21:03.224Z,9.67
2023-01-29T05:23:30.460Z,9.23
2023-01-29T05:25:58.247Z,9.53
2023-01-29T05:28:25.447Z,9.50
2023-01-29T05:30:54.150Z,9.50
2023-01-29T05:33:26.233Z,10.10
2023-01-29T05:35:53.507Z,9.77
2023-01-29T05:38:21.087Z,10.53
2023-01-29T05:40:48.663Z,10.50
2023-01-29T05:43:17.255Z,10.50
2023-01-29T05:45:44.933Z,10.60
2023-01-29T05:48:12.176Z,10.37
2023-01-29T05:50:39.406Z,10.70
2023-01-29T05:53:06.744Z,10.87
2023-01-29T05:55:33.975Z,10.90
2023-01-29T05:58:01.171Z,10.47
2023-01-29T06:00:28.451Z,9.97
2023-01-29T06:02:56.685Z,10.70
2023-01-29T06:05:24.041Z,11.00
2023-01-29T06:07:51.212Z,10.33
2023-01-29T06:10:19.293Z,10.23
2023-01-29T06:12:46.768Z,10.37
2023-01-29T06:15:19.638Z,10.37
2023-01-29T06:17:46.881Z,10.80
2023-01-29T06:20:14.891Z,10.73
2023-01-29T06:22:42.853Z,10.40
2023-01-29T06:25:10.392Z,10.57
2023-01-29T06:27:37.845Z,10.47
2023-01-29T06:30:05.831Z,10.93
2023-01-29T06:32:33.213Z,10.37
2023-01-29T06:35:00.438Z,10.77
2023-01-29T06:37:27.635Z,11.10
2023-01-29T06:39:54.887Z,10.70
2023-01-29T06:42:27.705Z,11.13
2023-01-29T06:44:58.303Z,11.43
2023-01-29T06:47:25.570Z,11.60
2023-01-29T06:49:52.744Z,11.53
2023-01-29T06:52:20.178Z,10.37
2023-01-29T06:57:32.199Z,10.67
2023-01-29T06:59:59.648Z,11.13
2023-01-29T07:02:26.977Z,10.37
2023-01-29T07:04:54.159Z,10.57
2023-01-29T07:07:21.363Z,10.27
2023-01-29T07:09:48.597Z,10.07
2023-01-29T07:12:15.867Z,10.20
2023-01-29T07:14:43.095Z,9.73
2023-01-29T07:17:10.432Z,9.60
2023-01-29T07:19:37.663Z,10.00
2023-01-29T07:22:05.699Z,10.17
2023-01-29T07:24:33.541Z,9.53
2023-01-29T07:27:00.838Z,10.07
2023-01-29T07:29:28.567Z,10.27
2023-01-29T07:31:55.838Z,10.00
2023-01-29T07:34:23.147Z,10.67
2023-01-29T07:36:50.401Z,10.53
2023-01-29T07:39:17.816Z,10.10
2023-01-29T07:41:45.124Z,9.80
2023-01-29T07:44:16.683Z,10.33
2023-01-29T07:46:44.000Z,9.60
2023-01-29T07:49:11.277Z,10.30
2023-01-29T07:51:38.471Z,9.73
2023-01-29T07:54:08.663Z,9.70
2023-01-29T07:56:36.046Z,28.40
2023-01-29T07:59:03.288Z,27.07
2023-01-29T08:01:30.524Z,27.27
2023-01-29T08:03:57.759Z,9.80
2023-01-29T08:06:28.048Z,9.97
2023-01-29T08:08:57.324Z,10.33
2023-01-29T08:11:24.566Z,10.17
2023-01-29T08:13:51.930Z,8.83
2023-01-29T08:16:19.212Z,9.57
2023-01-29T08:18:48.540Z,9.37
2023-01-29T08:21:16.312Z,9.20
2023-01-29T08:23:43.700Z,8.70
2023-01-29T08:26:11.014Z,9.10
2023-01-29T08:28:38.840Z,9.07
2023-01-29T08:31:13.283Z,9.70
2023-01-29T08:33:40.765Z,8.03
2023-01-29T08:36:27.415Z,9.03
2023-01-29T08:38:54.644Z,8.67
2023-01-29T08:41:21.825Z,8.67
2023-01-29T08:43:49.335Z,9.57
2023-01-29T08:46:16.553Z,8.83
2023-01-29T08:48:43.813Z,9.63
2023-01-29T08:51:11.385Z,9.30
2023-01-29T08:53:38.894Z,9.27
2023-01-29T08:56:06.312Z,9.23
2023-01-29T08:58:33.590Z,8.87
2023-01-29T09:01:11.202Z,8.97
2023-01-29T09:03:43.749Z,8.87
2023-01-29T09:06:12.246Z,9.10
2023-01-29T09:08:39.757Z,8.53
2023-01-29T09:11:07.420Z,9.07
2023-01-29T09:13:34.701Z,8.63
2023-01-29T09:16:02.761Z,8.67
2023-01-29T09:18:30.625Z,9.10
2023-01-29T09:20:58.500Z,9.53
2023-01-29T09:23:25.672Z,8.57
2023-01-29T09:25:52.857Z,8.60
2023-01-29T09:28:20.101Z,8.50
2023-01-29T09:30:47.516Z,8.73
2023-01-29T09:33:15.125Z,9.30
2023-01-29T09:35:43.054Z,9.37
2023-01-29T09:38:13.792Z,8.47
2023-01-29T09:41:00.193Z,9.67
2023-01-29T09:43:33.405Z,8.73
2023-01-29T09:46:07.254Z,9.33
2023-01-29T09:48:37.178Z,9.00
2023-01-29T09:51:07.421Z,9.47
2023-01-29T09:53:41.194Z,9.23
2023-01-29T09:56:20.309Z,8.97
2023-01-29T09:58:47.775Z,9.27
2023-01-29T10:01:37.831Z,8.63
2023-01-29T10:04:30.576Z,8.60
2023-01-29T10:07:06.478Z,9.03
2023-01-29T10:09:39.690Z,9.63
2023-01-29T10:12:06.905Z,9.00
2023-01-29T10:14:46.116Z,9.80
2023-01-29T10:17:33.227Z,9.33
2023-01-29T10:20:06.640Z,9.63
2023-01-29T10:22:52.759Z,9.30
2023-01-29T10:25:21.659Z,8.77
2023-01-29T10:27:59.167Z,8.83
2023-01-29T10:30:30.080Z,9.33
2023-01-29T10:33:00.786Z,8.90
2023-01-29T10:35:36.326Z,8.70
2023-01-29T10:38:16.719Z,8.90
2023-01-29T10:40:47.990Z,8.83
2023-01-29T10:43:25.464Z,9.10
2023-01-29T10:46:12.217Z,8.90
2023-01-29T10:48:45.791Z,8.93
2023-01-29T10:51:21.976Z,9.47
2023-01-29T10:53:55.250Z,9.40
2023-01-29T10:56:29.580Z,9.80
2023-01-29T10:59:05.510Z,9.03
2023-01-29T11:01:33.029Z,9.40
2023-01-29T11:04:02.289Z,10.00
2023-01-29T11:06:31.236Z,9.43
2023-01-29T11:09:19.068Z,8.50
2023-01-29T11:11:56.140Z,8.83
2023-01-29T11:14:25.303Z,8.90
2023-01-29T11:16:52.592Z,8.80
2023-01-29T11:19:36.479Z,9.23
2023-01-29T11:22:04.532Z,8.93
2023-01-29T11:24:32.008Z,9.37
2023-01-29T11:27:00.520Z,9.30
2023-01-29T11:29:27.704Z,11.27
2023-01-29T11:31:54.939Z,10.27
2023-01-29T11:34:25.163Z,9.50
2023-01-29T11:37:02.808Z,9.83
2023-01-29T11:39:33.056Z,9.77
2023-01-29T11:42:02.842Z,8.87
2023-01-29T11:44:30.098Z,9.33
2023-01-29T11:47:11.721Z,9.27
2023-01-29T11:49:39.627Z,8.87
2023-01-29T11:52:08.292Z,8.70
2023-01-29T11:54:39.315Z,9.60
2023-01-29T11:57:06.740Z,8.60
2023-01-29T11:59:40.363Z,8.37
2023-01-29T12:02:19.234Z,8.47
2023-01-29T12:04:46.556Z,8.03
2023-01-29T12:07:15.245Z,8.60
2023-01-29T12:09:50.487Z,8.40
2023-01-29T12:12:19.029Z,8.40
2023-01-29T12:14:46.367Z,8.13
2023-01-29T12:17:17.585Z,8.90
2023-01-29T12:19:47.628Z,7.93
2023-01-29T12:22:21.306Z,8.13
2023-01-29T12:24:56.984Z,8.27
2023-01-29T12:27:46.912Z,8.70
2023-01-29T12:30:23.261Z,7.30
2023-01-29T12:32:55.916Z,7.93
2023-01-29T12:35:32.202Z,7.70
2023-01-29T12:38:00.960Z,8.47
2023-01-29T12:40:32.912Z,7.93
2023-01-29T12:43:03.482Z,8.37
2023-01-29T12:45:31.614Z,7.97
2023-01-29T12:48:06.109Z,7.60
2023-01-29T12:50:34.816Z,7.83
2023-01-29T12:53:26.370Z,15.90
2023-01-29T12:56:00.563Z,8.77
2023-01-29T12:58:40.535Z,11.10
2023-01-29T13:01:28.139Z,8.30
2023-01-29T13:04:15.696Z,7.90
2023-01-29T13:06:45.074Z,8.07
2023-01-29T13:09:14.768Z,7.70
2023-01-29T13:11:46.730Z,7.37
2023-01-29T13:14:14.195Z,7.97
2023-01-29T13:16:46.812Z,7.37
2023-01-29T13:19:20.217Z,7.07
2023-01-29T13:21:48.005Z,7.73
2023-01-29T13:24:17.054Z,7.60
2023-01-29T13:26:47.948Z,7.30
2023-01-29T13:29:34.069Z,7.27
2023-01-29T13:32:02.540Z,7.47
2023-01-29T13:34:35.352Z,7.47
2023-01-29T13:37:04.461Z,7.43
2023-01-29T13:39:44.457Z,7.33
2023-01-29T13:42:26.139Z,7.73
2023-01-29T13:44:54.947Z,7.73
2023-01-29T13:47:27.356Z,7.10
2023-01-29T13:50:05.796Z,7.40
2023-01-29T13:52:43.338Z,8.30
2023-01-29T13:55:31.465Z,8.00
2023-01-29T13:58:02.681Z,8.80
2023-01-29T14:00:33.123Z,7.90
2023-01-29T14:03:11.627Z,7.80
2023-01-29T14:05:40.466Z,8.60
2023-01-29T14:08:27.629Z,8.10
2023-01-29T14:11:15.008Z,8.23
2023-01-29T14:13:49.776Z,8.27
2023-01-29T14:16:17.354Z,8.10
2023-01-29T14:18:48.603Z,8.80
2023-01-29T14:21:25.593Z,8.37
2023-01-29T14:23:54.074Z,7.17
2023-01-29T14:26:32.852Z,7.80
2023-01-29T14:29:18.750Z,6.97
2023-01-29T14:31:50.919Z,7.17
2023-01-29T14:34:34.805Z,7.03
2023-01-29T14:37:04.009Z,8.97
2023-01-29T14:39:50.060Z,8.00
2023-01-29T14:42:33.027Z,7.63
2023-01-29T14:45:19.257Z,7.47
2023-01-29T14:47:49.425Z,7.60
2023-01-29T14:50:19.526Z,7.80
2023-01-29T14:52:48.325Z,8.07
2023-01-29T14:55:27.797Z,7.53
2023-01-29T14:57:58.524Z,7.50
2023-01-29T15:00:30.285Z,7.80
2023-01-29T15:03:02.011Z,7.53
2023-01-29T15:05:32.036Z,7.73
2023-01-29T15:08:01.427Z,8.17
2023-01-29T15:10:37.548Z,8.13
2023-01-29T15:13:23.566Z,7.53
2023-01-29T15:15:55.876Z,7.67
2023-01-29T15:18:35.770Z,8.33
2023-01-29T15:21:05.779Z,8.00
2023-01-29T15:23:34.342Z,7.50
2023-01-29T15:26:20.519Z,7.20
2023-01-29T15:29:03.400Z,6.50
2023-01-29T15:31:31.390Z,11.13
2023-01-29T15:34:01.628Z,7.60
2023-01-29T15:36:30.650Z,7.67
2023-01-29T15:39:14.964Z,8.20
2023-01-29T15:41:48.665Z,7.97
2023-01-29T15:44:22.867Z,9.10
2023-01-29T15:46:52.930Z,8.70
2023-01-29T15:49:28.326Z,7.80
2023-01-29T15:51:59.265Z,7.10
2023-01-29T15:54:30.948Z,6.30
2023-01-29T15:56:58.447Z,6.77
2023-01-29T15:59:27.092Z,7.37
2023-01-29T16:01:54.909Z,7.17
2023-01-29T16:04:26.860Z,7.30
2023-01-29T16:06:55.030Z,7.67
2023-01-29T16:09:26.602Z,7.20
2023-01-29T16:11:54.962Z,7.47
2023-01-29T16:14:25.429Z,7.63
2023-01-29T16:16:53.131Z,8.33
2023-01-29T16:19:30.540Z,7.50
2023-01-29T16:22:01.669Z,7.23
2023-01-29T16:24:29.974Z,6.67
2023-01-29T16:27:00.030Z,7.03
2023-01-29T16:29:32.064Z,6.83
2023-01-29T16:32:02.022Z,6.27
2023-01-29T16:34:31.922Z,6.87
2023-01-29T16:37:00.191Z,6.67
2023-01-29T16:39:30.215Z,6.53
2023-01-29T16:42:12.969Z,6.80
2023-01-29T16:44:40.941Z,6.43
2023-01-29T16:47:27.211Z,6.60
2023-01-29T16:49:55.770Z,6.33
2023-01-29T16:52:26.111Z,6.53
2023-01-29T16:54:59.450Z,6.73
2023-01-29T16:57:28.666Z,7.23
2023-01-29T16:59:57.944Z,6.53
2023-01-29T17:02:29.054Z,6.53
2023-01-29T17:04:59.427Z,7.20
2023-01-29T17:07:27.091Z,6.67
2023-01-29T17:09:55.846Z,7.17
2023-01-29T17:12:25.729Z,7.77
2023-01-29T17:14:57.747Z,6.93
2023-01-29T17:17:36.102Z,7.10
2023-01-29T17:20:14.096Z,8.00
2023-01-29T17:22:41.613Z,7.50
2023-01-29T17:25:10.454Z,7.83
2023-01-29T17:27:41.240Z,6.67
2023-01-29T17:30:14.532Z,7.70
2023-01-29T17:33:02.761Z,5.77
2023-01-29T17:35:30.092Z,6.90
2023-01-29T17:37:57.470Z,6.50
2023-01-29T17:40:34.487Z,6.87
2023-01-29T17:43:01.858Z,6.63
2023-01-29T17:45:29.173Z,7.03
2023-01-29T17:47:56.373Z,6.77
2023-01-29T17:50:24.568Z,6.87
2023-01-29T17:52:52.652Z,6.73
2023-01-29T17:55:20.266Z,6.87
2023-01-29T17:57:47.605Z,7.97
2023-01-29T18:00:22.601Z,7.03
2023-01-29T18:02:50.133Z,7.57
2023-01-29T18:05:18.352Z,8.20
2023-01-29T18:07:46.848Z,6.97
2023-01-29T18:10:18.413Z,7.17
2023-01-29T18:13:04.655Z,7.47
2023-01-29T18:15:31.940Z,9.17
2023-01-29T18:17:59.393Z,7.77
2023-01-29T18:20:26.799Z,7.17
2023-01-29T18:22:54.115Z,6.60
2023-01-29T18:25:22.668Z,6.67
2023-01-29T18:27:51.371Z,6.80
2023-01-29T18:30:18.662Z,7.20
2023-01-29T18:32:47.571Z,6.90
2023-01-29T18:35:15.200Z,6.43
2023-01-29T18:37:42.520Z,7.53
2023-01-29T18:40:13.282Z,6.77
2023-01-29T18:42:41.142Z,7.60
2023-01-29T18:45:08.771Z,6.57
2023-01-29T18:47:36.073Z,6.90
2023-01-29T18:50:03.280Z,6.90
2023-01-29T18:52:30.527Z,6.80
2023-01-29T18:54:57.703Z,7.00
2023-01-29T18:58:27.870Z,7.00
2023-01-29T19:00:12.784Z,6.93
2023-01-29T19:02:40.040Z,7.03
2023-01-29T19:05:07.380Z,7.10
2023-01-29T19:07:34.645Z,7.70
2023-01-29T19:10:02.555Z,7.30
2023-01-29T19:12:29.867Z,7.37
2023-01-29T19:14:57.104Z,7.03
2023-01-29T19:17:24.502Z,7.03
2023-01-29T19:19:51.833Z,7.30
2023-01-29T19:22:19.259Z,6.70
2023-01-29T19:24:46.462Z,8.40
2023-01-29T19:27:13.775Z,7.23
2023-01-29T19:29:41.111Z,7.90
2023-01-29T19:32:09.112Z,10.47
2023-01-29T19:34:36.758Z,8.10
2023-01-29T19:37:04.147Z,6.80
2023-01-29T19:39:33.756Z,7.37
2023-01-29T19:42:01.650Z,7.57
2023-01-29T19:44:29.305Z,8.90
2023-01-29T19:46:56.642Z,7.30
2023-01-29T19:49:24.282Z,6.77
2023-01-29T19:51:51.481Z,7.40
2023-01-29T19:54:20.420Z,6.83
2023-01-29T19:56:47.854Z,6.73
2023-01-29T19:59:15.145Z,6.73
2023-01-29T20:01:42.471Z,6.30
2023-01-29T20:04:11.035Z,6.90
2023-01-29T20:06:38.525Z,7.13
2023-01-29T20:09:06.087Z,7.70
2023-01-29T20:11:34.020Z,8.00
2023-01-29T20:14:01.579Z,6.83
2023-01-29T20:16:29.224Z,7.50
2023-01-29T20:19:13.968Z,7.50
2023-01-29T20:21:42.508Z,7.00
2023-01-29T20:24:34.621Z,7.37
2023-01-29T20:27:02.985Z,6.63
2023-01-29T20:29:30.323Z,8.10
2023-01-29T20:31:57.697Z,7.33
2023-01-29T20:34:25.025Z,7.10
2023-01-29T20:36:52.290Z,7.30
2023-01-29T20:39:19.825Z,7.00
2023-01-29T20:41:47.108Z,6.83
2023-01-29T20:44:14.350Z,8.73
2023-01-29T20:46:42.838Z,8.77
2023-01-29T20:49:11.825Z,8.10
2023-01-29T20:51:39.448Z,7.40
2023-01-29T20:54:06.835Z,8.43
2023-01-29T20:56:40.853Z,7.83
2023-01-29T20:59:12.993Z,8.50
2023-01-29T21:01:40.216Z,8.10
2023-01-29T21:04:07.706Z,9.67
2023-01-29T21:06:34.922Z,9.67
2023-01-29T21:09:02.143Z,8.20
2023-01-29T21:11:29.488Z,8.37
2023-01-29T21:13:57.834Z,8.53
2023-01-29T21:16:26.307Z,8.30
2023-01-29T21:19:00.131Z,8.40
2023-01-29T21:21:27.936Z,8.43
2023-01-29T21:23:55.225Z,8.37
2023-01-29T21:26:23.763Z,7.87
2023-01-29T21:28:51.303Z,8.20
2023-01-29T21:31:18.595Z,8.47
2023-01-29T21:33:46.011Z,8.67
2023-01-29T21:36:13.437Z,8.00
2023-01-29T21:38:40.648Z,8.20
2023-01-29T21:41:09.921Z,7.97
2023-01-29T21:43:37.441Z,7.37
2023-01-29T21:46:11.367Z,8.13
2023-01-29T21:48:39.583Z,8.47
2023-01-29T21:51:06.913Z,8.10
2023-01-29T21:53:34.530Z,8.27
2023-01-29T21:56:05.854Z,8.33
2023-01-29T21:58:33.535Z,8.47
2023-01-29T22:01:35.301Z,8.43
2023-01-29T22:03:48.407Z,8.43
2023-01-29T22:06:16.323Z,8.90
2023-01-29T22:08:44.310Z,8.43
2023-01-29T22:11:12.181Z,8.63
2023-01-29T22:13:39.472Z,9.10
2023-01-29T22:16:06.954Z,9.63
2023-01-29T22:18:35.036Z,9.10
2023-01-29T22:21:07.663Z,9.20
2023-01-29T22:23:35.550Z,8.73
2023-01-29T22:26:03.726Z,8.43
2023-01-29T22:28:30.910Z,9.93
2023-01-29T22:31:05.189Z,8.87
2023-01-29T22:33:33.458Z,9.17
2023-01-29T22:36:01.185Z,8.63
2023-01-29T22:38:28.431Z,9.33
2023-01-29T22:40:56.794Z,8.13
2023-01-29T22:43:26.059Z,8.60
2023-01-29T22:45:53.648Z,8.57
2023-01-29T22:48:23.901Z,8.73
2023-01-29T22:51:12.283Z,8.07
2023-01-29T22:53:44.383Z,8.73
2023-01-29T22:56:12.061Z,8.20
2023-01-29T22:58:41.188Z,7.87
2023-01-29T23:01:09.414Z,8.70
2023-01-29T23:03:36.952Z,8.63
2023-01-29T23:06:04.246Z,8.33
2023-01-29T23:08:32.876Z,8.00
2023-01-29T23:11:13.931Z,8.63
2023-01-29T23:13:49.559Z,8.13
2023-01-29T23:16:17.667Z,8.03
2023-01-29T23:18:45.430Z,7.87
2023-01-29T23:21:12.759Z,8.20
2023-01-29T23:23:40.076Z,8.33
2023-01-29T23:26:26.800Z,8.87
2023-01-29T23:28:54.060Z,7.97
2023-01-29T23:31:21.690Z,8.30
2023-01-29T23:33:50.545Z,8.00
2023-01-29T23:36:18.067Z,8.40
2023-01-29T23:38:45.331Z,7.00
2023-01-29T23:41:12.657Z,8.13
2023-01-29T23:43:39.905Z,8.17
2023-01-29T23:46:07.331Z,8.00
2023-01-29T23:48:53.576Z,8.10
2023-01-29T23:51:20.823Z,7.63
2023-01-29T23:53:48.014Z,7.70
2023-01-29T23:56:15.224Z,7.97
2023-01-29T23:58:42.603Z,8.10
